createdAt,value
2022-09-20T00:00:19.749Z,1018.50
2022-09-20T00:01:19.854Z,1018.46
2022-09-20T00:02:19.724Z,1018.46
2022-09-20T00:03:19.687Z,1018.44
2022-09-20T00:04:19.671Z,1018.42
2022-09-20T00:05:19.700Z,1018.40
2022-09-20T00:06:19.627Z,1018.39
2022-09-20T00:07:19.630Z,1018.39
2022-09-20T00:08:19.583Z,1018.40
2022-09-20T00:09:19.567Z,1018.38
2022-09-20T00:10:19.565Z,1018.37
2022-09-20T00:11:19.525Z,1018.36
2022-09-20T00:12:19.502Z,1018.36
2022-09-20T00:13:19.507Z,1018.36
2022-09-20T00:14:19.462Z,1018.41
2022-09-20T00:15:19.440Z,1018.44
2022-09-20T00:16:19.482Z,1018.50
2022-09-20T00:17:19.396Z,1018.51
2022-09-20T00:18:19.382Z,1018.47
2022-09-20T00:19:19.379Z,1018.46
2022-09-20T00:20:19.341Z,1018.46
2022-09-20T00:21:19.315Z,1018.44
2022-09-20T00:22:19.295Z,1018.44
2022-09-20T00:23:19.304Z,1018.43
2022-09-20T00:24:19.278Z,1018.41
2022-09-20T00:25:19.235Z,1018.42
2022-09-20T00:26:19.217Z,1018.42
2022-09-20T00:27:19.199Z,1018.43
2022-09-20T00:28:19.180Z,1018.43
2022-09-20T00:29:19.155Z,1018.42
2022-09-20T00:30:19.152Z,1018.43
2022-09-20T00:31:19.178Z,1018.45
2022-09-20T00:32:19.093Z,1018.40
2022-09-20T00:33:19.065Z,1018.43
2022-09-20T00:34:19.049Z,1018.47
2022-09-20T00:35:19.046Z,1018.47
2022-09-20T00:36:19.024Z,1018.46
2022-09-20T00:37:18.990Z,1018.50
2022-09-20T00:38:18.974Z,1018.50
2022-09-20T00:39:18.947Z,1018.53
2022-09-20T00:40:18.975Z,1018.49
2022-09-20T00:41:18.913Z,1018.50
2022-09-20T00:42:18.888Z,1018.48
2022-09-20T00:43:18.862Z,1018.47
2022-09-20T00:44:18.855Z,1018.47
2022-09-20T00:45:18.825Z,1018.45
2022-09-20T00:46:18.865Z,1018.45
2022-09-20T00:47:18.800Z,1018.47
2022-09-20T00:48:18.765Z,1018.46
2022-09-20T00:49:18.743Z,1018.45
2022-09-20T00:50:18.729Z,1018.38
2022-09-20T00:51:18.718Z,1018.41
2022-09-20T00:52:18.683Z,1018.42
2022-09-20T00:53:18.660Z,1018.41
2022-09-20T00:54:20.513Z,1018.43
2022-09-20T00:55:18.613Z,1018.44
2022-09-20T00:56:18.616Z,1018.42
2022-09-20T00:57:18.584Z,1018.42
2022-09-20T00:58:18.560Z,1018.45
2022-09-20T00:59:18.557Z,1018.44
2022-09-20T01:00:18.520Z,1018.46
2022-09-20T01:01:18.640Z,1018.45
2022-09-20T01:02:18.499Z,1018.45
2022-09-20T01:03:18.452Z,1018.45
2022-09-20T01:04:18.436Z,1018.50
2022-09-20T01:05:18.428Z,1018.49
2022-09-20T01:06:18.389Z,1018.47
2022-09-20T01:07:18.382Z,1018.50
2022-09-20T01:08:18.349Z,1018.45
2022-09-20T01:09:18.327Z,1018.46
2022-09-20T01:10:18.325Z,1018.45
2022-09-20T01:11:18.290Z,1018.44
2022-09-20T01:12:18.264Z,1018.42
2022-09-20T01:13:18.245Z,1018.44
2022-09-20T01:14:18.220Z,1018.39
2022-09-20T01:15:18.231Z,1018.43
2022-09-20T01:16:18.240Z,1018.43
2022-09-20T01:17:18.182Z,1018.42
2022-09-20T01:18:18.139Z,1018.44
2022-09-20T01:19:18.124Z,1018.42
2022-09-20T01:20:18.119Z,1018.44
2022-09-20T01:21:18.082Z,1018.45
2022-09-20T01:22:18.059Z,1018.43
2022-09-20T01:23:18.041Z,1018.43
2022-09-20T01:24:18.041Z,1018.46
2022-09-20T01:25:17.999Z,1018.42
2022-09-20T01:26:17.981Z,1018.38
2022-09-20T01:27:17.978Z,1018.41
2022-09-20T01:28:17.935Z,1018.40
2022-09-20T01:29:17.914Z,1018.40
2022-09-20T01:30:17.896Z,1018.42
2022-09-20T01:31:17.933Z,1018.42
2022-09-20T01:32:17.851Z,1018.43
2022-09-20T01:33:17.839Z,1018.43
2022-09-20T01:34:17.814Z,1018.44
2022-09-20T01:35:17.811Z,1018.47
2022-09-20T01:36:17.767Z,1018.45
2022-09-20T01:37:17.754Z,1018.46
2022-09-20T01:38:17.729Z,1018.50
2022-09-20T01:39:17.714Z,1018.48
2022-09-20T01:40:17.742Z,1018.49
2022-09-20T01:41:17.684Z,1018.49
2022-09-20T01:42:17.650Z,1018.49
2022-09-20T01:43:17.646Z,1018.44
2022-09-20T01:44:17.609Z,1018.47
2022-09-20T01:45:17.587Z,1018.46
2022-09-20T01:46:17.610Z,1018.47
2022-09-20T01:47:17.547Z,1018.47
2022-09-20T01:48:17.548Z,1018.43
2022-09-20T01:49:17.505Z,1018.47
2022-09-20T01:50:17.484Z,1018.47
2022-09-20T01:51:17.463Z,1018.51
2022-09-20T01:52:17.439Z,1018.52
2022-09-20T01:53:17.439Z,1018.51
2022-09-20T01:54:17.403Z,1018.53
2022-09-20T01:55:17.378Z,1018.53
2022-09-20T01:56:17.359Z,1018.55
2022-09-20T01:57:17.338Z,1018.54
2022-09-20T01:58:17.318Z,1018.53
2022-09-20T01:59:24.261Z,1018.61
2022-09-20T02:00:17.280Z,1018.55
2022-09-20T02:01:17.344Z,1018.59
2022-09-20T02:02:17.292Z,1018.55
2022-09-20T02:03:17.236Z,1018.58
2022-09-20T02:04:17.196Z,1018.59
2022-09-20T02:05:17.173Z,1018.58
2022-09-20T02:06:17.151Z,1018.57
2022-09-20T02:07:17.133Z,1018.58
2022-09-20T02:08:17.116Z,1018.59
2022-09-20T02:09:17.109Z,1018.60
2022-09-20T02:10:17.073Z,1018.62
2022-09-20T02:11:17.047Z,1018.64
2022-09-20T02:12:17.029Z,1018.59
2022-09-20T02:13:17.010Z,1018.59
2022-09-20T02:14:17.006Z,1018.55
2022-09-20T02:15:16.970Z,1018.52
2022-09-20T02:16:17.089Z,1018.55
2022-09-20T02:17:16.928Z,1018.52
2022-09-20T02:18:16.904Z,1018.53
2022-09-20T02:19:16.888Z,1018.56
2022-09-20T02:20:16.877Z,1018.57
2022-09-20T02:21:16.847Z,1018.55
2022-09-20T02:22:16.839Z,1018.55
2022-09-20T02:23:16.801Z,1018.54
2022-09-20T02:24:16.785Z,1018.53
2022-09-20T02:25:16.779Z,1018.47
2022-09-20T02:26:16.734Z,1018.51
2022-09-20T02:27:16.722Z,1018.46
2022-09-20T02:28:16.699Z,1018.48
2022-09-20T02:29:16.698Z,1018.49
2022-09-20T02:30:16.674Z,1018.47
2022-09-20T02:31:16.693Z,1018.43
2022-09-20T02:32:16.613Z,1018.43
2022-09-20T02:33:16.594Z,1018.40
2022-09-20T02:34:16.573Z,1018.43
2022-09-20T02:35:16.556Z,1018.45
2022-09-20T02:36:16.548Z,1018.41
2022-09-20T02:37:16.515Z,1018.43
2022-09-20T02:38:16.491Z,1018.44
2022-09-20T02:39:16.474Z,1018.41
2022-09-20T02:40:16.494Z,1018.40
2022-09-20T02:41:16.452Z,1018.38
2022-09-20T02:42:16.414Z,1018.39
2022-09-20T02:43:16.412Z,1018.39
2022-09-20T02:44:16.368Z,1018.37
2022-09-20T02:45:16.347Z,1018.41
2022-09-20T02:46:16.347Z,1018.41
2022-09-20T02:47:16.323Z,1018.41
2022-09-20T02:48:16.289Z,1018.42
2022-09-20T02:49:16.269Z,1018.43
2022-09-20T02:50:16.252Z,1018.45
2022-09-20T02:51:16.239Z,1018.44
2022-09-20T02:52:16.205Z,1018.45
2022-09-20T02:53:16.181Z,1018.44
2022-09-20T02:54:16.160Z,1018.42
2022-09-20T02:55:16.165Z,1018.42
2022-09-20T02:56:16.127Z,1018.38
2022-09-20T02:57:16.101Z,1018.43
2022-09-20T02:58:16.082Z,1018.36
2022-09-20T02:59:16.080Z,1018.38
2022-09-20T03:00:16.046Z,1018.39
2022-09-20T03:01:16.053Z,1018.41
2022-09-20T03:02:16.053Z,1018.36
2022-09-20T03:03:15.981Z,1018.38
2022-09-20T03:04:15.957Z,1018.42
2022-09-20T03:05:15.942Z,1018.39
2022-09-20T03:06:15.920Z,1018.33
2022-09-20T03:07:15.896Z,1018.33
2022-09-20T03:08:15.890Z,1018.35
2022-09-20T03:09:15.854Z,1018.29
2022-09-20T03:10:15.839Z,1018.31
2022-09-20T03:11:15.831Z,1018.32
2022-09-20T03:12:15.791Z,1018.36
2022-09-20T03:13:15.790Z,1018.35
2022-09-20T03:14:15.760Z,1018.36
2022-09-20T03:15:15.731Z,1018.32
2022-09-20T03:16:15.765Z,1018.31
2022-09-20T03:17:15.708Z,1018.32
2022-09-20T03:18:15.666Z,1018.35
2022-09-20T03:19:15.676Z,1018.35
2022-09-20T03:20:15.637Z,1018.36
2022-09-20T03:21:15.606Z,1018.34
2022-09-20T03:22:15.578Z,1018.26
2022-09-20T03:23:15.561Z,1018.29
2022-09-20T03:24:15.545Z,1018.28
2022-09-20T03:25:15.542Z,1018.29
2022-09-20T03:26:15.520Z,1018.30
2022-09-20T03:27:15.484Z,1018.27
2022-09-20T03:28:15.461Z,1018.27
2022-09-20T03:29:15.441Z,1018.28
2022-09-20T03:30:15.427Z,1018.28
2022-09-20T03:31:15.425Z,1018.29
2022-09-20T03:32:15.407Z,1018.30
2022-09-20T03:33:15.355Z,1018.38
2022-09-20T03:34:15.337Z,1018.35
2022-09-20T03:35:15.319Z,1018.38
2022-09-20T03:36:15.292Z,1018.38
2022-09-20T03:37:15.291Z,1018.39
2022-09-20T03:38:15.250Z,1018.41
2022-09-20T03:39:15.236Z,1018.42
2022-09-20T03:40:15.288Z,1018.40
2022-09-20T03:41:15.268Z,1018.38
2022-09-20T03:42:15.186Z,1018.42
2022-09-20T03:43:15.148Z,1018.37
2022-09-20T03:44:15.128Z,1018.39
2022-09-20T03:45:15.152Z,1018.37
2022-09-20T03:46:15.168Z,1018.33
2022-09-20T03:47:15.080Z,1018.37
2022-09-20T03:48:15.048Z,1018.39
2022-09-20T03:49:15.021Z,1018.41
2022-09-20T03:50:15.003Z,1018.41
2022-09-20T03:51:14.980Z,1018.38
2022-09-20T03:52:14.984Z,1018.41
2022-09-20T03:53:14.942Z,1018.41
2022-09-20T03:54:14.933Z,1018.44
2022-09-20T03:55:14.919Z,1018.45
2022-09-20T03:56:14.880Z,1018.45
2022-09-20T03:57:14.863Z,1018.45
2022-09-20T03:58:14.841Z,1018.44
2022-09-20T03:59:14.834Z,1018.45
2022-09-20T04:00:14.797Z,1018.45
2022-09-20T04:01:14.879Z,1018.51
2022-09-20T04:02:14.849Z,1018.46
2022-09-20T04:03:14.761Z,1018.45
2022-09-20T04:04:14.717Z,1018.51
2022-09-20T04:05:14.698Z,1018.49
2022-09-20T04:06:14.677Z,1018.47
2022-09-20T04:07:14.648Z,1018.49
2022-09-20T04:08:14.636Z,1018.48
2022-09-20T04:09:14.631Z,1018.48
2022-09-20T04:10:14.594Z,1018.51
2022-09-20T04:11:14.578Z,1018.55
2022-09-20T04:12:14.548Z,1018.47
2022-09-20T04:13:14.529Z,1018.51
2022-09-20T04:14:14.830Z,1018.53
2022-09-20T04:16:56.525Z,1018.49
2022-09-20T04:17:56.433Z,1018.53
2022-09-20T04:18:56.424Z,1018.52
2022-09-20T04:19:56.397Z,1018.51
2022-09-20T04:20:56.384Z,1018.52
2022-09-20T04:21:56.350Z,1018.48
2022-09-20T04:22:56.326Z,1018.50
2022-09-20T04:23:56.411Z,1018.50
2022-09-20T04:24:56.285Z,1018.48
2022-09-20T04:25:56.286Z,1018.48
2022-09-20T04:26:56.240Z,1018.45
2022-09-20T04:27:56.223Z,1018.44
2022-09-20T04:28:56.202Z,1018.44
2022-09-20T04:29:56.181Z,1018.44
2022-09-20T04:30:56.163Z,1018.41
2022-09-20T04:31:56.181Z,1018.39
2022-09-20T04:32:56.118Z,1018.42
2022-09-20T04:33:56.114Z,1018.45
2022-09-20T04:34:56.076Z,1018.41
2022-09-20T04:35:56.057Z,1018.46
2022-09-20T04:36:56.052Z,1018.47
2022-09-20T04:37:56.019Z,1018.50
2022-09-20T04:38:56.009Z,1018.49
2022-09-20T04:39:56.030Z,1018.50
2022-09-20T04:40:55.956Z,1018.51
2022-09-20T04:41:55.955Z,1018.51
2022-09-20T04:42:55.930Z,1018.51
2022-09-20T04:43:55.903Z,1018.53
2022-09-20T04:44:55.871Z,1018.53
2022-09-20T04:45:55.909Z,1018.53
2022-09-20T04:46:56.320Z,1018.50
2022-09-20T04:47:55.813Z,1018.51
2022-09-20T04:48:55.802Z,1018.51
2022-09-20T04:49:55.783Z,1018.54
2022-09-20T04:50:55.747Z,1018.57
2022-09-20T04:51:55.722Z,1018.54
2022-09-20T04:52:55.790Z,1018.57
2022-09-20T04:53:55.713Z,1018.58
2022-09-20T04:54:55.678Z,1018.59
2022-09-20T04:55:55.670Z,1018.58
2022-09-20T04:56:55.620Z,1018.63
2022-09-20T04:57:55.600Z,1018.64
2022-09-20T04:58:55.604Z,1018.66
2022-09-20T04:59:55.560Z,1018.65
2022-09-20T05:00:55.591Z,1018.62
2022-09-20T05:01:55.688Z,1018.61
2022-09-20T05:02:55.518Z,1018.62
2022-09-20T05:03:55.480Z,1018.67
2022-09-20T05:04:55.460Z,1018.65
2022-09-20T05:05:55.432Z,1018.63
2022-09-20T05:06:55.436Z,1018.63
2022-09-20T05:07:55.482Z,1018.66
2022-09-20T05:08:58.791Z,1018.69
2022-09-20T05:09:55.371Z,1018.65
2022-09-20T05:10:55.351Z,1018.68
2022-09-20T05:11:55.318Z,1018.66
2022-09-20T05:12:55.311Z,1018.72
2022-09-20T05:13:55.263Z,1018.70
2022-09-20T05:14:55.249Z,1018.69
2022-09-20T05:15:55.229Z,1018.74
2022-09-20T05:16:55.342Z,1018.71
2022-09-20T05:17:55.186Z,1018.74
2022-09-20T05:18:55.221Z,1018.74
2022-09-20T05:19:55.182Z,1018.75
2022-09-20T05:20:55.158Z,1018.73
2022-09-20T05:21:55.124Z,1018.75
2022-09-20T05:22:55.085Z,1018.75
2022-09-20T05:23:55.060Z,1018.77
2022-09-20T05:24:55.040Z,1018.79
2022-09-20T05:25:55.016Z,1018.79
2022-09-20T05:26:55.000Z,1018.76
2022-09-20T05:27:54.991Z,1018.77
2022-09-20T05:28:54.954Z,1018.77
2022-09-20T05:29:54.952Z,1018.77
2022-09-20T05:30:54.923Z,1018.81
2022-09-20T05:31:54.920Z,1018.82
2022-09-20T05:32:54.889Z,1018.85
2022-09-20T05:33:54.850Z,1018.90
2022-09-20T05:34:54.830Z,1018.87
2022-09-20T05:35:54.810Z,1018.89
2022-09-20T05:36:54.787Z,1018.89
2022-09-20T05:37:54.765Z,1018.92
2022-09-20T05:38:55.794Z,1018.91
2022-09-20T05:39:54.728Z,1018.93
2022-09-20T05:40:54.704Z,1018.96
2022-09-20T05:41:54.693Z,1018.94
2022-09-20T05:42:54.661Z,1018.93
2022-09-20T05:43:54.660Z,1018.93
2022-09-20T05:44:54.636Z,1018.92
2022-09-20T05:45:54.644Z,1018.91
2022-09-20T05:46:54.576Z,1018.97
2022-09-20T05:47:54.566Z,1018.97
2022-09-20T05:48:54.542Z,1018.96
2022-09-20T05:49:54.540Z,1018.96
2022-09-20T05:50:55.776Z,1018.98
2022-09-20T05:51:54.464Z,1018.98
2022-09-20T05:52:54.454Z,1018.99
2022-09-20T05:53:54.450Z,1018.95
2022-09-20T05:54:54.414Z,1018.97
2022-09-20T05:55:54.421Z,1019.03
2022-09-20T05:56:54.404Z,1019.03
2022-09-20T05:57:54.348Z,1019.01
2022-09-20T05:58:54.332Z,1019.03
2022-09-20T05:59:54.312Z,1018.99
2022-09-20T06:00:54.311Z,1019.00
2022-09-20T06:01:54.292Z,1018.97
2022-09-20T06:02:54.263Z,1019.00
2022-09-20T06:03:54.230Z,1018.95
2022-09-20T06:04:54.206Z,1018.96
2022-09-20T06:05:54.185Z,1018.97
2022-09-20T06:06:54.165Z,1018.95
2022-09-20T06:07:54.166Z,1019.01
2022-09-20T06:08:54.126Z,1019.02
2022-09-20T06:09:54.107Z,1019.05
2022-09-20T06:10:54.078Z,1019.02
2022-09-20T06:11:54.061Z,1019.04
2022-09-20T06:12:54.040Z,1019.04
2022-09-20T06:13:54.038Z,1019.05
2022-09-20T06:14:54.019Z,1019.06
2022-09-20T06:15:53.981Z,1019.08
2022-09-20T06:16:53.964Z,1019.10
2022-09-20T06:17:53.940Z,1019.12
2022-09-20T06:18:53.937Z,1019.11
2022-09-20T06:19:53.919Z,1019.10
2022-09-20T06:20:53.885Z,1019.09
2022-09-20T06:21:53.855Z,1019.08
2022-09-20T06:22:53.840Z,1019.11
2022-09-20T06:23:53.807Z,1019.04
2022-09-20T06:24:53.791Z,1019.10
2022-09-20T06:25:53.790Z,1019.08
2022-09-20T06:26:53.749Z,1019.10
2022-09-20T06:27:53.733Z,1019.07
2022-09-20T06:28:57.712Z,1019.04
2022-09-20T06:29:53.687Z,1019.05
2022-09-20T06:30:53.728Z,1019.03
2022-09-20T06:31:53.645Z,1019.03
2022-09-20T06:32:53.625Z,1019.01
2022-09-20T06:33:53.600Z,1019.04
2022-09-20T06:34:53.586Z,1019.05
2022-09-20T06:35:56.959Z,1019.06
2022-09-20T06:36:53.561Z,1019.10
2022-09-20T06:37:53.522Z,1019.12
2022-09-20T06:38:53.500Z,1019.10
2022-09-20T06:39:53.481Z,1019.10
2022-09-20T06:40:53.465Z,1019.14
2022-09-20T06:41:53.456Z,1019.10
2022-09-20T06:42:53.417Z,1019.14
2022-09-20T06:43:53.401Z,1019.12
2022-09-20T06:44:53.374Z,1019.09
2022-09-20T06:45:53.409Z,1019.10
2022-09-20T06:46:53.360Z,1019.12
2022-09-20T06:47:53.317Z,1019.11
2022-09-20T06:48:53.321Z,1019.10
2022-09-20T06:49:53.279Z,1019.14
2022-09-20T06:50:53.258Z,1019.13
2022-09-20T06:51:53.237Z,1019.12
2022-09-20T06:52:53.214Z,1019.17
2022-09-20T06:53:53.203Z,1019.16
2022-09-20T06:54:53.185Z,1019.17
2022-09-20T06:55:53.153Z,1019.17
2022-09-20T06:56:53.148Z,1019.21
2022-09-20T06:57:53.115Z,1019.16
2022-09-20T06:58:53.110Z,1019.14
2022-09-20T06:59:53.072Z,1019.15
2022-09-20T07:00:53.071Z,1019.18
2022-09-20T07:01:53.102Z,1019.20
2022-09-20T07:02:53.011Z,1019.23
2022-09-20T07:03:52.993Z,1019.21
2022-09-20T07:04:52.984Z,1019.23
2022-09-20T07:05:52.957Z,1019.24
2022-09-20T07:06:52.930Z,1019.26
2022-09-20T07:07:52.913Z,1019.27
2022-09-20T07:08:52.951Z,1019.29
2022-09-20T07:09:52.870Z,1019.36
2022-09-20T07:10:52.873Z,1019.33
2022-09-20T07:11:52.829Z,1019.33
2022-09-20T07:12:52.809Z,1019.35
2022-09-20T07:13:52.800Z,1019.34
2022-09-20T07:14:52.786Z,1019.38
2022-09-20T07:15:52.745Z,1019.37
2022-09-20T07:16:52.764Z,1019.38
2022-09-20T07:17:52.707Z,1019.41
2022-09-20T07:18:52.694Z,1019.39
2022-09-20T07:19:52.681Z,1019.39
2022-09-20T07:20:52.666Z,1019.46
2022-09-20T07:21:52.625Z,1019.45
2022-09-20T07:22:52.614Z,1019.43
2022-09-20T07:23:52.625Z,1019.42
2022-09-20T07:24:52.582Z,1019.48
2022-09-20T07:25:52.542Z,1019.45
2022-09-20T07:26:52.544Z,1019.45
2022-09-20T07:27:52.507Z,1019.50
2022-09-20T07:28:52.489Z,1019.47
2022-09-20T07:29:52.464Z,1019.46
2022-09-20T07:30:52.444Z,1019.45
2022-09-20T07:31:52.523Z,1019.38
2022-09-20T07:32:52.410Z,1019.41
2022-09-20T07:33:52.388Z,1019.41
2022-09-20T07:34:52.367Z,1019.44
2022-09-20T07:35:52.343Z,1019.44
2022-09-20T07:36:52.356Z,1019.43
2022-09-20T07:37:52.319Z,1019.41
2022-09-20T07:38:52.367Z,1019.40
2022-09-20T07:39:52.264Z,1019.43
2022-09-20T07:40:52.246Z,1019.44
2022-09-20T07:41:52.222Z,1019.44
2022-09-20T07:42:56.074Z,1019.45
2022-09-20T07:43:52.187Z,1019.42
2022-09-20T07:44:52.169Z,1019.48
2022-09-20T07:45:52.202Z,1019.47
2022-09-20T07:46:52.129Z,1019.44
2022-09-20T07:47:52.124Z,1019.44
2022-09-20T07:48:52.088Z,1019.44
2022-09-20T07:49:52.062Z,1019.44
2022-09-20T07:50:52.042Z,1019.46
2022-09-20T07:51:52.020Z,1019.47
2022-09-20T07:52:52.025Z,1019.43
2022-09-20T07:53:51.988Z,1019.45
2022-09-20T07:54:51.963Z,1019.47
2022-09-20T07:55:51.945Z,1019.52
2022-09-20T07:56:51.921Z,1019.46
2022-09-20T07:57:51.908Z,1019.49
2022-09-20T07:58:52.622Z,1019.46
2022-09-20T07:59:51.872Z,1019.49
2022-09-20T08:00:51.879Z,1019.44
2022-09-20T08:01:51.867Z,1019.48
2022-09-20T08:02:51.806Z,1019.50
2022-09-20T08:03:51.804Z,1019.54
2022-09-20T08:04:51.766Z,1019.51
2022-09-20T08:05:51.746Z,1019.53
2022-09-20T08:06:51.727Z,1019.52
2022-09-20T08:07:51.707Z,1019.52
2022-09-20T08:08:51.734Z,1019.52
2022-09-20T08:09:51.670Z,1019.55
2022-09-20T08:10:51.644Z,1019.57
2022-09-20T08:11:51.674Z,1019.58
2022-09-20T08:14:17.815Z,1019.56
2022-09-20T08:14:51.570Z,1019.59
2022-09-20T08:15:51.546Z,1019.60
2022-09-20T08:16:51.567Z,1019.59
2022-09-20T08:17:51.524Z,1019.60
2022-09-20T08:18:51.495Z,1019.65
2022-09-20T08:19:51.498Z,1019.66
2022-09-20T08:20:51.454Z,1019.65
2022-09-20T08:21:51.428Z,1019.64
2022-09-20T08:23:12.633Z,1019.66
2022-09-20T08:23:51.394Z,1019.65
2022-09-20T08:24:51.396Z,1019.66
2022-09-20T08:25:51.358Z,1019.66
2022-09-20T08:26:51.338Z,1019.63
2022-09-20T08:27:51.318Z,1019.65
2022-09-20T08:28:51.294Z,1019.64
2022-09-20T08:29:51.305Z,1019.64
2022-09-20T08:30:51.257Z,1019.66
2022-09-20T08:31:51.270Z,1019.64
2022-09-20T08:32:51.220Z,1019.62
2022-09-20T08:33:51.197Z,1019.63
2022-09-20T08:34:51.216Z,1019.64
2022-09-20T08:35:51.166Z,1019.67
2022-09-20T08:36:51.140Z,1019.68
2022-09-20T08:37:51.471Z,1019.68
2022-09-20T08:39:58.974Z,1019.71
2022-09-20T08:40:51.083Z,1019.70
2022-09-20T08:41:51.043Z,1019.73
2022-09-20T08:42:51.020Z,1019.72
2022-09-20T08:43:51.024Z,1019.74
2022-09-20T08:44:57.756Z,1019.74
2022-09-20T08:45:51.209Z,1019.73
2022-09-20T08:46:50.945Z,1019.72
2022-09-20T08:47:53.300Z,1019.77
2022-09-20T08:48:50.905Z,1019.78
2022-09-20T08:49:56.976Z,1019.74
2022-09-20T08:50:50.895Z,1019.76
2022-09-20T08:51:50.847Z,1019.79
2022-09-20T08:52:50.849Z,1019.80
2022-09-20T08:53:50.822Z,1019.78
2022-09-20T08:54:50.802Z,1019.79
2022-09-20T08:55:50.801Z,1019.77
2022-09-20T08:56:50.755Z,1019.76
2022-09-20T08:57:50.748Z,1019.78
2022-09-20T08:58:50.726Z,1019.79
2022-09-20T08:59:50.697Z,1019.82
2022-09-20T09:00:50.836Z,1019.79
2022-09-20T09:01:50.666Z,1019.80
2022-09-20T09:02:50.661Z,1019.85
2022-09-20T09:03:50.625Z,1019.84
2022-09-20T09:04:50.630Z,1019.86
2022-09-20T09:05:50.580Z,1019.88
2022-09-20T09:06:50.583Z,1019.82
2022-09-20T09:07:50.556Z,1019.81
2022-09-20T09:08:50.522Z,1019.82
2022-09-20T09:09:50.504Z,1019.80
2022-09-20T09:10:50.507Z,1019.82
2022-09-20T09:11:50.476Z,1019.82
2022-09-20T09:12:50.445Z,1019.82
2022-09-20T09:13:50.430Z,1019.82
2022-09-20T09:14:50.422Z,1019.85
2022-09-20T09:15:50.418Z,1019.83
2022-09-20T09:16:50.418Z,1019.78
2022-09-20T09:17:50.353Z,1019.77
2022-09-20T09:18:50.349Z,1019.86
2022-09-20T09:19:50.332Z,1019.84
2022-09-20T09:20:50.302Z,1019.81
2022-09-20T09:21:50.313Z,1019.78
2022-09-20T09:22:50.283Z,1019.79
2022-09-20T09:23:50.256Z,1019.80
2022-09-20T09:24:50.224Z,1019.80
2022-09-20T09:25:50.223Z,1019.83
2022-09-20T09:26:50.209Z,1019.85
2022-09-20T09:27:50.194Z,1019.80
2022-09-20T09:28:50.155Z,1019.74
2022-09-20T09:29:50.146Z,1019.78
2022-09-20T09:30:50.136Z,1019.74
2022-09-20T09:31:50.211Z,1019.70
2022-09-20T09:32:50.119Z,1019.69
2022-09-20T09:33:50.081Z,1019.72
2022-09-20T09:34:50.061Z,1019.75
2022-09-20T09:35:50.033Z,1019.72
2022-09-20T09:36:50.012Z,1019.72
2022-09-20T09:37:50.008Z,1019.74
2022-09-20T09:38:49.998Z,1019.69
2022-09-20T09:39:49.963Z,1019.66
2022-09-20T09:40:49.945Z,1019.66
2022-09-20T09:41:49.929Z,1019.65
2022-09-20T09:42:49.932Z,1019.64
2022-09-20T09:43:49.909Z,1019.65
2022-09-20T09:44:49.888Z,1019.62
2022-09-20T09:45:49.964Z,1019.60
2022-09-20T09:46:49.843Z,1019.61
2022-09-20T09:47:49.822Z,1019.58
2022-09-20T09:48:49.861Z,1019.59
2022-09-20T09:49:49.785Z,1019.57
2022-09-20T09:50:49.795Z,1019.55
2022-09-20T09:51:49.752Z,1019.57
2022-09-20T09:52:49.743Z,1019.56
2022-09-20T09:53:49.734Z,1019.56
2022-09-20T09:54:49.701Z,1019.57
2022-09-20T09:55:49.686Z,1019.58
2022-09-20T09:56:49.660Z,1019.53
2022-09-20T09:57:49.661Z,1019.59
2022-09-20T09:58:49.643Z,1019.59
2022-09-20T09:59:49.607Z,1019.61
2022-09-20T10:00:49.630Z,1019.60
2022-09-20T10:01:49.724Z,1019.61
2022-09-20T10:02:49.560Z,1019.67
2022-09-20T10:03:49.544Z,1019.66
2022-09-20T10:04:49.528Z,1019.67
2022-09-20T10:05:49.491Z,1019.66
2022-09-20T10:06:52.390Z,1019.67
2022-09-20T10:07:49.474Z,1019.68
2022-09-20T10:08:49.455Z,1019.63
2022-09-20T10:09:49.461Z,1019.65
2022-09-20T10:10:49.419Z,1019.64
2022-09-20T10:11:49.389Z,1019.61
2022-09-20T10:12:49.373Z,1019.67
2022-09-20T10:13:49.354Z,1019.69
2022-09-20T10:14:49.348Z,1019.70
2022-09-20T10:15:49.321Z,1019.76
2022-09-20T10:16:49.365Z,1019.76
2022-09-20T10:17:49.274Z,1019.78
2022-09-20T10:18:49.248Z,1019.89
2022-09-20T10:19:49.237Z,1019.87
2022-09-20T10:20:49.229Z,1019.88
2022-09-20T10:21:49.193Z,1019.85
2022-09-20T10:23:14.663Z,1019.83
2022-09-20T10:24:03.114Z,1019.84
2022-09-20T10:24:51.551Z,1019.86
2022-09-20T10:25:49.118Z,1019.81
2022-09-20T10:26:49.113Z,1019.82
2022-09-20T10:27:49.082Z,1019.77
2022-09-20T10:28:49.065Z,1019.84
2022-09-20T10:29:49.054Z,1019.77
2022-09-20T10:30:49.079Z,1019.80
2022-09-20T10:31:49.020Z,1019.80
2022-09-20T10:32:48.993Z,1019.82
2022-09-20T10:33:48.962Z,1019.80
2022-09-20T10:34:48.955Z,1019.82
2022-09-20T10:35:48.922Z,1019.81
2022-09-20T10:36:48.933Z,1019.85
2022-09-20T10:37:49.596Z,1019.79
2022-09-20T10:38:48.862Z,1019.81
2022-09-20T10:39:48.848Z,1019.82
2022-09-20T10:40:48.841Z,1019.78
2022-09-20T10:41:48.801Z,1019.78
2022-09-20T10:42:48.785Z,1019.79
2022-09-20T10:43:48.759Z,1019.78
2022-09-20T10:44:48.754Z,1019.80
2022-09-20T10:46:27.922Z,1019.79
2022-09-20T10:46:48.732Z,1019.77
2022-09-20T10:47:48.709Z,1019.75
2022-09-20T10:48:48.663Z,1019.72
2022-09-20T10:49:50.932Z,1019.72
2022-09-20T10:50:48.627Z,1019.74
2022-09-20T10:51:48.606Z,1019.69
2022-09-20T10:52:48.870Z,1019.69
2022-09-20T10:53:48.568Z,1019.70
2022-09-20T10:54:48.557Z,1019.73
2022-09-20T10:55:48.520Z,1019.79
2022-09-20T10:56:48.511Z,1019.78
2022-09-20T10:57:48.493Z,1019.84
2022-09-20T10:58:48.490Z,1019.81
2022-09-20T10:59:48.464Z,1019.79
2022-09-20T11:00:48.480Z,1019.85
2022-09-20T11:01:48.449Z,1019.84
2022-09-20T11:02:48.389Z,1019.86
2022-09-20T11:03:48.434Z,1019.83
2022-09-20T11:04:48.361Z,1019.85
2022-09-20T11:05:48.328Z,1019.86
2022-09-20T11:06:48.309Z,1019.87
2022-09-20T11:07:48.310Z,1019.87
2022-09-20T11:08:48.269Z,1019.86
2022-09-20T11:09:48.262Z,1019.82
2022-09-20T11:10:48.257Z,1019.78
2022-09-20T11:11:48.248Z,1019.89
2022-09-20T11:12:48.192Z,1019.84
2022-09-20T11:13:48.224Z,1019.88
2022-09-20T11:14:48.152Z,1019.82
2022-09-20T11:15:48.135Z,1019.87
2022-09-20T11:16:48.214Z,1019.88
2022-09-20T11:17:48.095Z,1019.91
2022-09-20T11:18:48.081Z,1019.90
2022-09-20T11:19:48.061Z,1019.86
2022-09-20T11:20:48.046Z,1019.88
2022-09-20T11:21:48.039Z,1019.93
2022-09-20T11:22:47.999Z,1019.89
2022-09-20T11:23:47.991Z,1019.90
2022-09-20T11:24:47.962Z,1020.00
2022-09-20T11:25:47.962Z,1019.87
2022-09-20T11:26:47.924Z,1019.83
2022-09-20T11:27:47.928Z,1019.90
2022-09-20T11:28:47.894Z,1019.90
2022-09-20T11:29:47.887Z,1019.94
2022-09-20T11:30:47.849Z,1019.92
2022-09-20T11:31:47.880Z,1019.94
2022-09-20T11:32:47.808Z,1019.94
2022-09-20T11:33:47.798Z,1019.94
2022-09-20T11:34:47.775Z,1019.97
2022-09-20T11:35:47.781Z,1020.01
2022-09-20T11:36:47.746Z,1020.09
2022-09-20T11:37:47.724Z,1020.03
2022-09-20T11:38:52.873Z,1020.02
2022-09-20T11:39:47.687Z,1019.99
2022-09-20T11:40:47.697Z,1020.05
2022-09-20T11:41:47.658Z,1020.07
2022-09-20T11:42:47.641Z,1019.97
2022-09-20T11:43:47.626Z,1020.04
2022-09-20T11:44:47.604Z,1020.14
2022-09-20T11:45:47.653Z,1020.02
2022-09-20T11:46:47.598Z,1020.11
2022-09-20T11:47:54.830Z,1020.08
2022-09-20T11:48:47.543Z,1020.07
2022-09-20T11:49:47.517Z,1020.15
2022-09-20T11:50:47.523Z,1020.02
2022-09-20T11:51:47.485Z,1020.08
2022-09-20T11:52:47.488Z,1020.04
2022-09-20T11:53:47.474Z,1020.01
2022-09-20T11:54:47.444Z,1020.00
2022-09-20T11:55:47.422Z,1020.02
2022-09-20T11:56:47.419Z,1020.00
2022-09-20T11:57:47.387Z,1020.02
2022-09-20T11:58:47.369Z,1019.98
2022-09-20T11:59:47.353Z,1019.97
2022-09-20T12:00:47.346Z,1019.99
2022-09-20T12:01:47.343Z,1019.99
2022-09-20T12:02:47.492Z,1019.95
2022-09-20T12:03:47.291Z,1019.92
2022-09-20T12:04:47.277Z,1019.95
2022-09-20T12:05:47.249Z,1019.91
2022-09-20T12:06:47.264Z,1019.93
2022-09-20T12:07:47.215Z,1019.92
2022-09-20T12:08:47.194Z,1019.90